sensor_id;sensor_type;location;lat;lon;timestamp;pressure;altitude;pressure_sealevel;temperature;humidity
41312;BME280;27061;41.648;24.568;2023-04-27T00:01:40;85218.81;;;4.58;81.80
41312;BME280;27061;41.648;24.568;2023-04-27T00:04:08;85272.88;;;4.94;81.47
41312;BME280;27061;41.648;24.568;2023-04-27T00:06:35;85305.75;;;5.04;82.16
41312;BME280;27061;41.648;24.568;2023-04-27T00:09:02;85301.59;;;5.26;81.95
41312;BME280;27061;41.648;24.568;2023-04-27T00:11:30;85281.06;;;5.04;80.50
41312;BME280;27061;41.648;24.568;2023-04-27T00:13:58;85227.72;;;4.57;81.22
41312;BME280;27061;41.648;24.568;2023-04-27T00:16:25;85235.88;;;4.79;82.11
41312;BME280;27061;41.648;24.568;2023-04-27T00:18:52;85195.53;;;4.45;82.19
41312;BME280;27061;41.648;24.568;2023-04-27T00:21:19;85243.47;;;4.66;80.55
41312;BME280;27061;41.648;24.568;2023-04-27T00:23:47;85205.84;;;4.40;80.93
41312;BME280;27061;41.648;24.568;2023-04-27T00:26:14;85272.88;;;4.94;81.87
41312;BME280;27061;41.648;24.568;2023-04-27T00:28:44;85234.56;;;4.66;81.96
41312;BME280;27061;41.648;24.568;2023-04-27T00:31:11;85281.03;;;5.14;80.27
41312;BME280;27061;41.648;24.568;2023-04-27T00:33:38;85265.97;;;5.07;81.44
41312;BME280;27061;41.648;24.568;2023-04-27T00:36:05;85226.38;;;4.50;81.02
41312;BME280;27061;41.648;24.568;2023-04-27T00:38:32;85036.28;;;3.23;80.66
41312;BME280;27061;41.648;24.568;2023-04-27T00:41:04;85247.53;;;4.84;79.01
41312;BME280;27061;41.648;24.568;2023-04-27T00:43:31;85315.31;;;5.26;78.76
41312;BME280;27061;41.648;24.568;2023-04-27T00:45:59;85281.75;;;4.99;79.64
41312;BME280;27061;41.648;24.568;2023-04-27T00:48:27;85311.91;;;5.15;79.79
41312;BME280;27061;41.648;24.568;2023-04-27T00:50:54;85307.09;;;5.11;80.67
41312;BME280;27061;41.648;24.568;2023-04-27T00:53:21;85317.41;;;5.13;79.55
41312;BME280;27061;41.648;24.568;2023-04-27T00:55:48;85301.66;;;5.07;80.08
41312;BME280;27061;41.648;24.568;2023-04-27T00:58:15;85294.13;;;4.94;79.94
41312;BME280;27061;41.648;24.568;2023-04-27T01:00:42;85314.00;;;5.04;81.58
41312;BME280;27061;41.648;24.568;2023-04-27T01:03:09;85302.38;;;4.96;81.14
41312;BME280;27061;41.648;24.568;2023-04-27T01:05:37;85252.38;;;4.61;78.76
41312;BME280;27061;41.648;24.568;2023-04-27T01:08:06;85294.84;;;4.82;80.25
41312;BME280;27061;41.648;24.568;2023-04-27T01:10:33;85260.63;;;4.57;80.40
41312;BME280;27061;41.648;24.568;2023-04-27T01:13:01;85283.91;;;4.60;80.53
41312;BME280;27061;41.648;24.568;2023-04-27T01:15:29;85251.06;;;4.39;78.98
41312;BME280;27061;41.648;24.568;2023-04-27T01:18:00;85331.84;;;4.93;78.85
41312;BME280;27061;41.648;24.568;2023-04-27T01:20:28;85312.69;;;4.75;80.85
41312;BME280;27061;41.648;24.568;2023-04-27T01:22:56;85273.66;;;4.50;81.59
41312;BME280;27061;41.648;24.568;2023-04-27T01:25:24;85222.31;;;4.16;81.30
41312;BME280;27061;41.648;24.568;2023-04-27T01:27:52;85279.81;;;4.63;81.03
41312;BME280;27061;41.648;24.568;2023-04-27T01:30:20;85201.78;;;4.07;80.28
41312;BME280;27061;41.648;24.568;2023-04-27T01:32:50;85282.56;;;4.49;79.62
41312;BME280;27061;41.648;24.568;2023-04-27T01:35:18;85338.00;;;5.02;77.79
41312;BME280;27061;41.648;24.568;2023-04-27T01:37:45;85343.47;;;5.14;79.13
41312;BME280;27061;41.648;24.568;2023-04-27T01:40:12;85267.47;;;4.60;78.53
41312;BME280;27061;41.648;24.568;2023-04-27T01:42:40;85293.50;;;4.73;78.95
41312;BME280;27061;41.648;24.568;2023-04-27T01:45:07;85347.59;;;5.05;80.04
41312;BME280;27061;41.648;24.568;2023-04-27T01:47:36;85349.66;;;5.06;80.28
41312;BME280;27061;41.648;24.568;2023-04-27T01:50:04;85251.06;;;4.29;77.97
41312;BME280;27061;41.648;24.568;2023-04-27T01:52:32;85320.91;;;4.75;80.11
41312;BME280;27061;41.648;24.568;2023-04-27T01:55:01;85229.16;;;4.05;80.31
41312;BME280;27061;41.648;24.568;2023-04-27T01:57:28;85353.09;;;4.97;80.70
41312;BME280;27061;41.648;24.568;2023-04-27T01:59:55;85279.81;;;4.55;78.86
41312;BME280;27061;41.648;24.568;2023-04-27T02:02:22;85353.78;;;5.05;79.42
41312;BME280;27061;41.648;24.568;2023-04-27T02:04:50;85290.78;;;4.49;78.14
41312;BME280;27061;41.648;24.568;2023-04-27T02:07:18;85244.94;;;4.09;77.86
41312;BME280;27061;41.648;24.568;2023-04-27T02:09:45;85353.78;;;4.93;77.96
41312;BME280;27061;41.648;24.568;2023-04-27T02:12:12;85307.25;;;4.53;78.93
41312;BME280;27061;41.648;24.568;2023-04-27T02:14:39;85272.97;;;4.25;79.78
41312;BME280;27061;41.648;24.568;2023-04-27T02:17:06;85355.19;;;4.86;78.09
41312;BME280;27061;41.648;24.568;2023-04-27T02:19:33;85279.16;;;4.03;79.57
41312;BME280;27061;41.648;24.568;2023-04-27T02:22:02;85355.19;;;4.64;80.39
41312;BME280;27061;41.648;24.568;2023-04-27T02:24:29;85303.13;;;4.21;81.67
41312;BME280;27061;41.648;24.568;2023-04-27T02:26:56;85317.53;;;4.32;80.23
41312;BME280;27061;41.648;24.568;2023-04-27T02:29:28;85296.28;;;4.22;80.64
41312;BME280;27061;41.648;24.568;2023-04-27T02:31:56;85271.63;;;3.88;80.14
41312;BME280;27061;41.648;24.568;2023-04-27T02:34:24;85353.16;;;4.54;78.65
41312;BME280;27061;41.648;24.568;2023-04-27T02:36:51;85321.63;;;4.31;80.27
41312;BME280;27061;41.648;24.568;2023-04-27T02:39:18;85290.09;;;4.14;80.34
41312;BME280;27061;41.648;24.568;2023-04-27T02:41:45;85268.19;;;3.95;79.16
41312;BME280;27061;41.648;24.568;2023-04-27T02:44:14;85360.66;;;4.78;79.05
41312;BME280;27061;41.648;24.568;2023-04-27T02:46:41;85343.56;;;4.55;78.81
41312;BME280;27061;41.648;24.568;2023-04-27T02:49:08;85360.00;;;4.65;77.65
41312;BME280;27061;41.648;24.568;2023-04-27T02:51:35;85358.63;;;4.52;79.36
41312;BME280;27061;41.648;24.568;2023-04-27T02:54:02;85370.97;;;4.61;79.72
41312;BME280;27061;41.648;24.568;2023-04-27T02:56:30;85355.19;;;4.48;78.28
41312;BME280;27061;41.648;24.568;2023-04-27T02:58:57;85326.41;;;4.34;79.04
41312;BME280;27061;41.648;24.568;2023-04-27T03:01:24;85372.31;;;4.70;78.55
41312;BME280;27061;41.648;24.568;2023-04-27T03:03:52;85303.81;;;4.30;77.45
41312;BME280;27061;41.648;24.568;2023-04-27T03:06:19;85301.75;;;4.26;77.51
41312;BME280;27061;41.648;24.568;2023-04-27T03:08:46;85377.13;;;4.82;77.42
41312;BME280;27061;41.648;24.568;2023-04-27T03:11:13;85370.94;;;4.69;77.78
41312;BME280;27061;41.648;24.568;2023-04-27T03:13:40;85375.09;;;4.76;78.83
41312;BME280;27061;41.648;24.568;2023-04-27T03:16:10;85368.91;;;4.72;76.94
41312;BME280;27061;41.648;24.568;2023-04-27T03:18:38;85274.34;;;4.04;77.48
41312;BME280;27061;41.648;24.568;2023-04-27T03:21:08;85373.69;;;4.59;77.69
41312;BME280;27061;41.648;24.568;2023-04-27T03:23:36;85350.41;;;4.22;77.67
41312;BME280;27061;41.648;24.568;2023-04-27T03:26:08;85373.69;;;4.35;78.39
41312;BME280;27061;41.648;24.568;2023-04-27T03:28:36;85377.13;;;4.37;78.44
41312;BME280;27061;41.648;24.568;2023-04-27T03:31:04;85353.81;;;4.12;78.43
41312;BME280;27061;41.648;24.568;2023-04-27T03:33:32;85361.34;;;4.14;78.72
41312;BME280;27061;41.648;24.568;2023-04-27T03:35:59;85336.66;;;3.79;78.78
41312;BME280;27061;41.648;24.568;2023-04-27T03:38:27;85386.69;;;4.18;80.29
41312;BME280;27061;41.648;24.568;2023-04-27T03:40:55;85331.81;;;3.72;79.56
41312;BME280;27061;41.648;24.568;2023-04-27T03:43:23;85371.59;;;3.97;79.58
41312;BME280;27061;41.648;24.568;2023-04-27T03:45:51;85230.44;;;3.01;79.64
41312;BME280;27061;41.648;24.568;2023-04-27T03:48:19;85402.44;;;4.24;80.52
41312;BME280;27061;41.648;24.568;2023-04-27T03:50:47;85336.63;;;3.75;79.11
41312;BME280;27061;41.648;24.568;2023-04-27T03:53:14;85362.66;;;3.84;79.75
41312;BME280;27061;41.648;24.568;2023-04-27T03:55:44;85357.88;;;3.87;80.39
41312;BME280;27061;41.648;24.568;2023-04-27T03:58:13;85339.38;;;3.69;79.83
41312;BME280;27061;41.648;24.568;2023-04-27T04:00:59;85309.91;;;3.55;78.60
41312;BME280;27061;41.648;24.568;2023-04-27T04:03:26;85316.72;;;3.46;79.54
41312;BME280;27061;41.648;24.568;2023-04-27T04:05:54;85401.75;;;4.11;79.45
41312;BME280;27061;41.648;24.568;2023-04-27T04:08:22;85329.09;;;3.59;79.90
41312;BME280;27061;41.648;24.568;2023-04-27T04:10:49;85415.38;;;3.93;79.54
41312;BME280;27061;41.648;24.568;2023-04-27T04:13:16;85385.88;;;3.59;80.79
41312;BME280;27061;41.648;24.568;2023-04-27T04:15:44;85355.00;;;3.36;82.18
41312;BME280;27061;41.648;24.568;2023-04-27T04:18:11;85222.00;;;2.44;81.00
41312;BME280;27061;41.648;24.568;2023-04-27T04:20:38;85229.53;;;2.45;81.57
41312;BME280;27061;41.648;24.568;2023-04-27T04:23:05;85416.75;;;3.84;80.03
41312;BME280;27061;41.648;24.568;2023-04-27T04:25:58;85342.66;;;3.25;80.93
41312;BME280;27061;41.648;24.568;2023-04-27T04:28:32;85361.81;;;3.25;81.27
41312;BME280;27061;41.648;24.568;2023-04-27T04:31:00;85257.63;;;2.60;80.47
41312;BME280;27061;41.648;24.568;2023-04-27T04:33:27;85414.66;;;3.76;80.58
41312;BME280;27061;41.648;24.568;2023-04-27T04:35:55;85187.00;;;2.06;80.29
41312;BME280;27061;41.648;24.568;2023-04-27T04:38:22;85360.44;;;3.30;80.16
41312;BME280;27061;41.648;24.568;2023-04-27T04:40:50;85332.34;;;3.15;79.99
41312;BME280;27061;41.648;24.568;2023-04-27T04:43:18;85363.19;;;3.26;80.12
41312;BME280;27061;41.648;24.568;2023-04-27T04:45:46;85396.81;;;3.59;80.08
41312;BME280;27061;41.648;24.568;2023-04-27T04:48:14;85426.97;;;3.73;80.61
41312;BME280;27061;41.648;24.568;2023-04-27T04:50:44;85326.19;;;3.13;79.48
41312;BME280;27061;41.648;24.568;2023-04-27T04:53:13;85373.47;;;3.34;79.90
41312;BME280;27061;41.648;24.568;2023-04-27T04:55:40;85430.41;;;3.76;80.51
41312;BME280;27061;41.648;24.568;2023-04-27T04:58:08;85376.91;;;3.36;79.33
41312;BME280;27061;41.648;24.568;2023-04-27T05:00:35;85374.16;;;3.42;79.40
41312;BME280;27061;41.648;24.568;2023-04-27T05:03:02;85429.75;;;3.87;80.10
41312;BME280;27061;41.648;24.568;2023-04-27T05:05:30;85425.69;;;3.96;78.12
41312;BME280;27061;41.648;24.568;2023-04-27T05:07:57;85400.28;;;3.72;77.76
41312;BME280;27061;41.648;24.568;2023-04-27T05:10:24;85374.22;;;3.54;78.40
41312;BME280;27061;41.648;24.568;2023-04-27T05:12:51;85378.31;;;3.53;77.81
41312;BME280;27061;41.648;24.568;2023-04-27T05:15:19;85204.22;;;2.33;78.35
41312;BME280;27061;41.648;24.568;2023-04-27T05:17:46;85409.91;;;3.85;77.17
41312;BME280;27061;41.648;24.568;2023-04-27T05:20:13;85441.47;;;4.10;77.95
41312;BME280;27061;41.648;24.568;2023-04-27T05:22:41;85442.88;;;4.13;77.33
41312;BME280;27061;41.648;24.568;2023-04-27T05:25:08;85438.75;;;4.10;77.34
41312;BME280;27061;41.648;24.568;2023-04-27T05:27:35;85338.59;;;3.36;77.84
41312;BME280;27061;41.648;24.568;2023-04-27T05:30:03;85443.50;;;3.99;79.43
41312;BME280;27061;41.648;24.568;2023-04-27T05:32:30;85382.47;;;3.68;78.21
41312;BME280;27061;41.648;24.568;2023-04-27T05:34:59;85432.56;;;4.10;78.45
41312;BME280;27061;41.648;24.568;2023-04-27T05:37:26;85260.41;;;2.76;79.37
41312;BME280;27061;41.648;24.568;2023-04-27T05:39:53;85440.09;;;4.09;81.48
41312;BME280;27061;41.648;24.568;2023-04-27T05:42:20;85379.03;;;3.66;81.90
41312;BME280;27061;41.648;24.568;2023-04-27T05:44:48;85403.00;;;3.72;77.87
41312;BME280;27061;41.648;24.568;2023-04-27T05:47:15;85449.69;;;4.12;77.34
41312;BME280;27061;41.648;24.568;2023-04-27T05:49:42;85456.50;;;4.05;77.35
41312;BME280;27061;41.648;24.568;2023-04-27T05:52:09;85269.94;;;2.69;77.61
41312;BME280;27061;41.648;24.568;2023-04-27T05:54:36;85337.13;;;3.11;78.66
41312;BME280;27061;41.648;24.568;2023-04-27T05:57:03;85293.91;;;2.75;77.10
41312;BME280;27061;41.648;24.568;2023-04-27T05:59:31;85250.06;;;2.54;78.18
41312;BME280;27061;41.648;24.568;2023-04-27T06:01:59;85413.97;;;3.72;77.40
41312;BME280;27061;41.648;24.568;2023-04-27T06:04:26;85466.84;;;4.21;77.97
41312;BME280;27061;41.648;24.568;2023-04-27T06:06:53;85433.88;;;3.90;77.62
41312;BME280;27061;41.648;24.568;2023-04-27T06:09:20;85456.53;;;4.07;76.43
41312;BME280;27061;41.648;24.568;2023-04-27T06:11:47;85438.63;;;3.76;77.73
41312;BME280;27061;41.648;24.568;2023-04-27T06:14:14;85475.75;;;4.29;76.57
41312;BME280;27061;41.648;24.568;2023-04-27T06:16:49;85475.75;;;4.23;79.03
41312;BME280;27061;41.648;24.568;2023-04-27T06:19:16;85436.66;;;4.04;77.78
41312;BME280;27061;41.648;24.568;2023-04-27T06:21:44;85445.53;;;3.97;79.40
41312;BME280;27061;41.648;24.568;2023-04-27T06:24:11;85422.22;;;3.86;79.77
41312;BME280;27061;41.648;24.568;2023-04-27T06:26:38;85356.38;;;3.41;79.89
41312;BME280;27061;41.648;24.568;2023-04-27T06:29:05;85301.47;;;2.88;78.87
41312;BME280;27061;41.648;24.568;2023-04-27T06:31:33;85421.56;;;3.89;78.46
41312;BME280;27061;41.648;24.568;2023-04-27T06:34:01;85462.06;;;4.31;76.11
41312;BME280;27061;41.648;24.568;2023-04-27T06:36:28;85449.72;;;4.26;77.75
41312;BME280;27061;41.648;24.568;2023-04-27T06:38:55;85379.78;;;3.79;75.86
41312;BME280;27061;41.648;24.568;2023-04-27T06:41:23;85477.19;;;4.61;74.81
41312;BME280;27061;41.648;24.568;2023-04-27T06:43:52;85427.81;;;4.22;77.96
41312;BME280;27061;41.648;24.568;2023-04-27T06:46:19;85483.38;;;4.61;73.05
41312;BME280;27061;41.648;24.568;2023-04-27T06:48:48;85441.50;;;4.18;73.89
41312;BME280;27061;41.648;24.568;2023-04-27T06:51:15;85404.44;;;3.93;74.76
41312;BME280;27061;41.648;24.568;2023-04-27T06:53:42;85490.91;;;4.61;74.32
41312;BME280;27061;41.648;24.568;2023-04-27T06:56:10;85436.00;;;4.16;75.07
41312;BME280;27061;41.648;24.568;2023-04-27T06:58:37;85493.66;;;4.71;77.02
41312;BME280;27061;41.648;24.568;2023-04-27T07:01:05;85487.50;;;4.64;77.50
41312;BME280;27061;41.648;24.568;2023-04-27T07:03:35;85456.59;;;4.33;78.97
41312;BME280;27061;41.648;24.568;2023-04-27T07:06:03;85458.69;;;4.43;78.82
41312;BME280;27061;41.648;24.568;2023-04-27T07:08:30;85441.53;;;4.36;77.77
41312;BME280;27061;41.648;24.568;2023-04-27T07:10:57;85463.50;;;4.61;77.02
41312;BME280;27061;41.648;24.568;2023-04-27T07:13:24;85449.06;;;4.42;78.68
41312;BME280;27061;41.648;24.568;2023-04-27T07:15:54;85455.25;;;4.67;76.34
41312;BME280;27061;41.648;24.568;2023-04-27T07:18:24;85496.44;;;4.85;71.85
41312;BME280;27061;41.648;24.568;2023-04-27T07:20:54;85506.03;;;5.04;71.73
41312;BME280;27061;41.648;24.568;2023-04-27T07:23:22;85452.50;;;4.57;74.09
41312;BME280;27061;41.648;24.568;2023-04-27T07:25:49;85512.91;;;5.05;76.83
41312;BME280;27061;41.648;24.568;2023-04-27T07:28:16;85512.88;;;5.01;76.57
41312;BME280;27061;41.648;24.568;2023-04-27T07:30:44;85510.84;;;5.02;73.47
41312;BME280;27061;41.648;24.568;2023-04-27T07:33:11;85447.06;;;4.65;71.53
41312;BME280;27061;41.648;24.568;2023-04-27T07:35:40;85468.31;;;4.72;75.26
41312;BME280;27061;41.648;24.568;2023-04-27T07:38:07;85453.91;;;4.74;76.52
41312;BME280;27061;41.648;24.568;2023-04-27T07:40:34;85482.72;;;5.07;77.43
41312;BME280;27061;41.648;24.568;2023-04-27T07:43:03;85512.91;;;5.38;73.07
41312;BME280;27061;41.648;24.568;2023-04-27T07:45:31;85477.22;;;4.89;74.69
41312;BME280;27061;41.648;24.568;2023-04-27T07:47:59;85473.09;;;5.12;71.25
41312;BME280;27061;41.648;24.568;2023-04-27T07:50:28;85508.06;;;5.42;72.28
41312;BME280;27061;41.648;24.568;2023-04-27T07:52:56;85488.19;;;5.20;71.83
41312;BME280;27061;41.648;24.568;2023-04-27T07:55:24;85466.25;;;5.07;74.14
41312;BME280;27061;41.648;24.568;2023-04-27T07:57:52;85480.66;;;5.10;71.22
41312;BME280;27061;41.648;24.568;2023-04-27T08:00:20;85507.41;;;5.42;74.83
41312;BME280;27061;41.648;24.568;2023-04-27T08:02:49;85473.13;;;5.19;72.56
41312;BME280;27061;41.648;24.568;2023-04-27T08:05:16;85460.78;;;5.18;74.88
41312;BME280;27061;41.648;24.568;2023-04-27T08:07:44;85519.03;;;5.63;71.63
41312;BME280;27061;41.648;24.568;2023-04-27T08:10:13;85438.81;;;5.15;74.03
41312;BME280;27061;41.648;24.568;2023-04-27T08:12:40;85486.09;;;5.57;77.45
41312;BME280;27061;41.648;24.568;2023-04-27T08:15:09;85473.09;;;5.47;75.06
41312;BME280;27061;41.648;24.568;2023-04-27T08:17:37;85507.38;;;5.70;76.65
41312;BME280;27061;41.648;24.568;2023-04-27T08:20:07;85525.19;;;6.00;70.67
41312;BME280;27061;41.648;24.568;2023-04-27T08:22:41;85518.97;;;6.09;74.77
41312;BME280;27061;41.648;24.568;2023-04-27T08:25:08;85451.13;;;5.49;72.93
41312;BME280;27061;41.648;24.568;2023-04-27T08:27:39;85525.84;;;6.14;69.98
41312;BME280;27061;41.648;24.568;2023-04-27T08:30:07;85462.75;;;5.70;75.36
41312;BME280;27061;41.648;24.568;2023-04-27T08:32:34;85468.22;;;5.74;72.40
41312;BME280;27061;41.648;24.568;2023-04-27T08:35:01;85499.13;;;5.88;65.86
41312;BME280;27061;41.648;24.568;2023-04-27T08:37:29;85498.41;;;6.02;68.45
41312;BME280;27061;41.648;24.568;2023-04-27T08:39:56;85505.28;;;6.03;71.92
41312;BME280;27061;41.648;24.568;2023-04-27T08:42:23;85479.16;;;5.98;70.61
41312;BME280;27061;41.648;24.568;2023-04-27T08:44:50;85446.94;;;5.74;69.96
41312;BME280;27061;41.648;24.568;2023-04-27T08:47:25;85502.44;;;6.23;71.72
41312;BME280;27061;41.648;24.568;2023-04-27T08:50:08;85516.16;;;6.32;69.56
41312;BME280;27061;41.648;24.568;2023-04-27T08:52:36;85499.66;;;6.30;69.88
41312;BME280;27061;41.648;24.568;2023-04-27T08:55:04;85512.69;;;6.37;67.51
41312;BME280;27061;41.648;24.568;2023-04-27T08:57:33;85486.56;;;6.36;76.21
41312;BME280;27061;41.648;24.568;2023-04-27T09:00:00;85509.78;;;6.78;76.43
41312;BME280;27061;41.648;24.568;2023-04-27T09:02:27;85459.03;;;6.46;70.81
41312;BME280;27061;41.648;24.568;2023-04-27T09:04:55;85438.38;;;6.51;77.05
41312;BME280;27061;41.648;24.568;2023-04-27T09:07:23;85469.81;;;6.87;70.96
41312;BME280;27061;41.648;24.568;2023-04-27T09:10:02;85460.88;;;6.86;74.00
41312;BME280;27061;41.648;24.568;2023-04-27T09:12:29;85436.75;;;6.89;64.17
41312;BME280;27061;41.648;24.568;2023-04-27T09:14:57;85501.03;;;7.49;73.33
41312;BME280;27061;41.648;24.568;2023-04-27T09:17:28;85472.28;;;7.29;69.53
41312;BME280;27061;41.648;24.568;2023-04-27T09:20:06;85435.25;;;7.10;73.48
41312;BME280;27061;41.648;24.568;2023-04-27T09:22:47;85477.56;;;7.56;71.35
41312;BME280;27061;41.648;24.568;2023-04-27T09:25:31;85510.25;;;7.96;72.53
41312;BME280;27061;41.648;24.568;2023-04-27T09:27:59;85474.63;;;7.76;74.78
41312;BME280;27061;41.648;24.568;2023-04-27T09:30:28;85512.78;;;8.19;65.20
41312;BME280;27061;41.648;24.568;2023-04-27T09:33:00;85519.59;;;8.32;70.47
41312;BME280;27061;41.648;24.568;2023-04-27T09:35:32;85509.44;;;8.12;63.67
41312;BME280;27061;41.648;24.568;2023-04-27T09:37:59;85489.47;;;8.07;66.87
41312;BME280;27061;41.648;24.568;2023-04-27T09:40:28;85481.31;;;7.97;64.11
41312;BME280;27061;41.648;24.568;2023-04-27T09:42:58;85519.69;;;8.20;58.49
41312;BME280;27061;41.648;24.568;2023-04-27T09:45:27;85523.81;;;8.19;63.20
41312;BME280;27061;41.648;24.568;2023-04-27T09:47:55;85517.03;;;8.07;64.94
41312;BME280;27061;41.648;24.568;2023-04-27T09:50:22;85521.16;;;8.13;66.53
41312;BME280;27061;41.648;24.568;2023-04-27T09:52:49;85458.16;;;7.70;61.09
41312;BME280;27061;41.648;24.568;2023-04-27T09:55:24;85534.16;;;8.18;61.36
41312;BME280;27061;41.648;24.568;2023-04-27T10:09:05;85511.69;;;7.93;60.58
41312;BME280;27061;41.648;24.568;2023-04-27T10:11:42;85491.84;;;7.77;65.63
41312;BME280;27061;41.648;24.568;2023-04-27T10:14:16;85500.75;;;7.83;63.32
41312;BME280;27061;41.648;24.568;2023-04-27T10:16:54;85523.41;;;7.94;65.91
41312;BME280;27061;41.648;24.568;2023-04-27T10:19:23;85533.56;;;8.09;62.46
41312;BME280;27061;41.648;24.568;2023-04-27T10:21:58;85526.59;;;8.17;65.28
41312;BME280;27061;41.648;24.568;2023-04-27T10:27:01;85524.50;;;8.21;66.78
41312;BME280;27061;41.648;24.568;2023-04-27T10:29:34;85538.22;;;8.31;60.42
41312;BME280;27061;41.648;24.568;2023-04-27T10:32:11;85534.72;;;8.35;63.42
41312;BME280;27061;41.648;24.568;2023-04-27T10:34:39;85470.44;;;7.83;64.08
41312;BME280;27061;41.648;24.568;2023-04-27T10:37:09;85537.41;;;8.41;64.47
41312;BME280;27061;41.648;24.568;2023-04-27T10:39:40;85537.97;;;8.54;62.09
41312;BME280;27061;41.648;24.568;2023-04-27T10:42:25;85487.28;;;8.20;60.37
41312;BME280;27061;41.648;24.568;2023-04-27T10:44:59;85523.63;;;8.41;57.75
41312;BME280;27061;41.648;24.568;2023-04-27T10:47:37;85538.13;;;8.37;59.83
41312;BME280;27061;41.648;24.568;2023-04-27T10:50:08;85456.56;;;7.93;60.33
41312;BME280;27061;41.648;24.568;2023-04-27T10:52:41;85490.00;;;8.26;61.83
41312;BME280;27061;41.648;24.568;2023-04-27T10:55:16;85477.03;;;8.13;62.67
41312;BME280;27061;41.648;24.568;2023-04-27T10:57:50;85548.22;;;8.63;62.74
41312;BME280;27061;41.648;24.568;2023-04-27T11:00:39;85507.78;;;8.39;56.07
41312;BME280;27061;41.648;24.568;2023-04-27T11:03:21;85474.25;;;8.15;57.73
41312;BME280;27061;41.648;24.568;2023-04-27T11:05:59;85509.34;;;8.18;60.42
41312;BME280;27061;41.648;24.568;2023-04-27T11:08:26;85425.03;;;7.74;59.37
41312;BME280;27061;41.648;24.568;2023-04-27T11:10:53;85426.44;;;7.73;60.91
41312;BME280;27061;41.648;24.568;2023-04-27T11:13:26;85528.88;;;8.67;58.14
41312;BME280;27061;41.648;24.568;2023-04-27T11:15:58;85509.81;;;8.45;64.52
41312;BME280;27061;41.648;24.568;2023-04-27T11:18:29;85523.38;;;8.63;63.52
41312;BME280;27061;41.648;24.568;2023-04-27T11:21:08;85406.41;;;7.77;62.56
41312;BME280;27061;41.648;24.568;2023-04-27T11:23:36;85550.72;;;8.86;63.59
41312;BME280;27061;41.648;24.568;2023-04-27T11:26:16;85542.44;;;8.86;64.30
41312;BME280;27061;41.648;24.568;2023-04-27T11:29:06;85550.59;;;8.96;56.58
41312;BME280;27061;41.648;24.568;2023-04-27T11:34:06;85532.81;;;8.82;55.80
41312;BME280;27061;41.648;24.568;2023-04-27T11:36:34;85335.97;;;7.30;54.89
41312;BME280;27061;41.648;24.568;2023-04-27T11:39:02;85432.78;;;8.25;54.21
41312;BME280;27061;41.648;24.568;2023-04-27T11:41:33;85523.09;;;8.90;62.27
41312;BME280;27061;41.648;24.568;2023-04-27T11:44:08;85493.00;;;8.67;61.01
41312;BME280;27061;41.648;24.568;2023-04-27T11:46:36;85485.97;;;8.76;56.15
41312;BME280;27061;41.648;24.568;2023-04-27T11:49:05;85511.03;;;9.11;61.80
41312;BME280;27061;41.648;24.568;2023-04-27T11:51:35;85517.75;;;9.27;65.56
41312;BME280;27061;41.648;24.568;2023-04-27T11:54:06;85552.38;;;9.69;56.73
41312;BME280;27061;41.648;24.568;2023-04-27T11:56:40;85526.31;;;9.55;53.82
41312;BME280;27061;41.648;24.568;2023-04-27T11:59:17;85544.53;;;9.85;54.61
41312;BME280;27061;41.648;24.568;2023-04-27T12:01:45;85422.22;;;8.97;59.74
41312;BME280;27061;41.648;24.568;2023-04-27T12:04:12;85487.59;;;9.60;59.99
41312;BME280;27061;41.648;24.568;2023-04-27T12:06:42;85495.72;;;9.70;57.61
41312;BME280;27061;41.648;24.568;2023-04-27T12:09:09;85553.09;;;10.12;51.09
41312;BME280;27061;41.648;24.568;2023-04-27T12:11:38;85500.91;;;9.90;54.57
41312;BME280;27061;41.648;24.568;2023-04-27T12:14:05;85519.50;;;9.96;55.75
41312;BME280;27061;41.648;24.568;2023-04-27T12:16:34;85363.00;;;8.88;54.77
41312;BME280;27061;41.648;24.568;2023-04-27T12:19:01;85347.13;;;8.88;53.93
41312;BME280;27061;41.648;24.568;2023-04-27T12:21:28;85515.06;;;10.13;52.86
41312;BME280;27061;41.648;24.568;2023-04-27T12:23:57;85538.72;;;10.47;57.71
41312;BME280;27061;41.648;24.568;2023-04-27T12:26:25;85485.34;;;10.13;57.54
41312;BME280;27061;41.648;24.568;2023-04-27T12:28:52;85361.13;;;9.19;56.71
41312;BME280;27061;41.648;24.568;2023-04-27T12:31:19;85531.22;;;10.80;55.21
41312;BME280;27061;41.648;24.568;2023-04-27T12:33:53;85395.91;;;9.86;56.54
41312;BME280;27061;41.648;24.568;2023-04-27T12:36:20;85377.53;;;9.72;55.41
41312;BME280;27061;41.648;24.568;2023-04-27T12:38:47;85529.22;;;11.12;54.77
41312;BME280;27061;41.648;24.568;2023-04-27T12:41:14;85448.72;;;10.50;51.51
41312;BME280;27061;41.648;24.568;2023-04-27T12:43:41;85537.81;;;11.32;51.26
41312;BME280;27061;41.648;24.568;2023-04-27T12:46:09;85514.06;;;11.07;49.83
41312;BME280;27061;41.648;24.568;2023-04-27T12:48:37;85483.88;;;10.92;51.09
41312;BME280;27061;41.648;24.568;2023-04-27T12:51:04;85488.50;;;11.04;48.56
41312;BME280;27061;41.648;24.568;2023-04-27T12:53:32;85405.38;;;10.38;48.88
41312;BME280;27061;41.648;24.568;2023-04-27T12:56:00;85521.06;;;11.04;42.79
41312;BME280;27061;41.648;24.568;2023-04-27T12:58:27;85446.72;;;10.46;45.62
41312;BME280;27061;41.648;24.568;2023-04-27T13:01:02;85506.16;;;10.86;45.83
41312;BME280;27061;41.648;24.568;2023-04-27T13:03:29;85447.59;;;10.37;50.82
41312;BME280;27061;41.648;24.568;2023-04-27T13:05:57;85538.72;;;11.21;47.70
41312;BME280;27061;41.648;24.568;2023-04-27T13:08:24;85506.00;;;10.94;45.74
41312;BME280;27061;41.648;24.568;2023-04-27T13:10:51;85548.34;;;11.24;46.33
41312;BME280;27061;41.648;24.568;2023-04-27T13:13:19;85407.03;;;10.23;49.89
41312;BME280;27061;41.648;24.568;2023-04-27T13:15:52;85479.59;;;10.64;44.64
41312;BME280;27061;41.648;24.568;2023-04-27T13:18:20;85536.22;;;11.07;45.80
41312;BME280;27061;41.648;24.568;2023-04-27T13:20:48;85520.47;;;10.99;45.95
41312;BME280;27061;41.648;24.568;2023-04-27T13:23:16;85454.81;;;10.58;50.49
41312;BME280;27061;41.648;24.568;2023-04-27T13:25:43;85544.09;;;11.29;52.19